sensor_id;sensor_type;location;lat;lon;timestamp;P1;durP1;ratioP1;P2;durP2;ratioP2
60312;SDS011;46158;52.850;6.970;2023-04-03T00:01:00;1.73;;;1.40;;
60312;SDS011;46158;52.850;6.970;2023-04-03T00:03:26;5.93;;;1.70;;
60312;SDS011;46158;52.850;6.970;2023-04-03T00:05:52;2.92;;;1.48;;
60312;SDS011;46158;52.850;6.970;2023-04-03T00:08:18;2.30;;;1.70;;
60312;SDS011;46158;52.850;6.970;2023-04-03T00:10:44;3.03;;;1.70;;
60312;SDS011;46158;52.850;6.970;2023-04-03T00:13:10;2.65;;;1.70;;
60312;SDS011;46158;52.850;6.970;2023-04-03T00:15:36;3.58;;;1.73;;
60312;SDS011;46158;52.850;6.970;2023-04-03T00:18:03;4.40;;;1.73;;
60312;SDS011;46158;52.850;6.970;2023-04-03T00:20:30;2.50;;;1.70;;
60312;SDS011;46158;52.850;6.970;2023-04-03T00:23:02;5.75;;;2.10;;
60312;SDS011;46158;52.850;6.970;2023-04-03T00:25:31;1.58;;;1.42;;
60312;SDS011;46158;52.850;6.970;2023-04-03T00:27:57;4.30;;;1.63;;
60312;SDS011;46158;52.850;6.970;2023-04-03T00:30:24;3.97;;;1.75;;
60312;SDS011;46158;52.850;6.970;2023-04-03T00:32:51;2.55;;;1.73;;
60312;SDS011;46158;52.850;6.970;2023-04-03T00:35:17;2.50;;;1.70;;
60312;SDS011;46158;52.850;6.970;2023-04-03T00:37:44;4.43;;;1.67;;
60312;SDS011;46158;52.850;6.970;2023-04-03T00:40:11;2.63;;;1.48;;
60312;SDS011;46158;52.850;6.970;2023-04-03T00:42:38;3.55;;;1.58;;
60312;SDS011;46158;52.850;6.970;2023-04-03T00:47:54;2.28;;;1.55;;
60312;SDS011;46158;52.850;6.970;2023-04-03T00:50:25;2.75;;;1.58;;
60312;SDS011;46158;52.850;6.970;2023-04-03T00:52:52;3.45;;;1.40;;
60312;SDS011;46158;52.850;6.970;2023-04-03T00:55:18;3.53;;;1.65;;
60312;SDS011;46158;52.850;6.970;2023-04-03T00:57:45;4.00;;;1.65;;
60312;SDS011;46158;52.850;6.970;2023-04-03T01:00:12;2.83;;;1.60;;
60312;SDS011;46158;52.850;6.970;2023-04-03T01:02:41;2.65;;;1.35;;
60312;SDS011;46158;52.850;6.970;2023-04-03T01:05:07;3.47;;;1.60;;
60312;SDS011;46158;52.850;6.970;2023-04-03T01:07:34;4.18;;;1.90;;
60312;SDS011;46158;52.850;6.970;2023-04-03T01:10:03;3.97;;;1.73;;
60312;SDS011;46158;52.850;6.970;2023-04-03T01:12:35;4.75;;;1.80;;
60312;SDS011;46158;52.850;6.970;2023-04-03T01:15:24;2.85;;;1.60;;
60312;SDS011;46158;52.850;6.970;2023-04-03T01:17:55;3.60;;;1.63;;
60312;SDS011;46158;52.850;6.970;2023-04-03T01:25:39;3.15;;;1.73;;
60312;SDS011;46158;52.850;6.970;2023-04-03T01:28:09;6.13;;;1.80;;
60312;SDS011;46158;52.850;6.970;2023-04-03T01:30:40;2.55;;;1.60;;
60312;SDS011;46158;52.850;6.970;2023-04-03T01:33:26;3.83;;;1.70;;
60312;SDS011;46158;52.850;6.970;2023-04-03T01:36:18;3.35;;;1.63;;
60312;SDS011;46158;52.850;6.970;2023-04-03T01:38:49;3.40;;;1.70;;
60312;SDS011;46158;52.850;6.970;2023-04-03T01:41:16;4.55;;;1.80;;
60312;SDS011;46158;52.850;6.970;2023-04-03T01:43:42;2.20;;;1.70;;
60312;SDS011;46158;52.850;6.970;2023-04-03T01:46:08;3.47;;;1.70;;
60312;SDS011;46158;52.850;6.970;2023-04-03T01:48:34;3.40;;;1.70;;
60312;SDS011;46158;52.850;6.970;2023-04-03T01:50:59;3.92;;;1.70;;
60312;SDS011;46158;52.850;6.970;2023-04-03T01:53:29;4.95;;;1.75;;
60312;SDS011;46158;52.850;6.970;2023-04-03T01:55:58;4.55;;;1.80;;
60312;SDS011;46158;52.850;6.970;2023-04-03T01:58:24;3.88;;;1.80;;
60312;SDS011;46158;52.850;6.970;2023-04-03T02:00:50;3.13;;;1.88;;
60312;SDS011;46158;52.850;6.970;2023-04-03T02:03:16;4.25;;;1.70;;
60312;SDS011;46158;52.850;6.970;2023-04-03T02:05:42;5.57;;;2.00;;
60312;SDS011;46158;52.850;6.970;2023-04-03T02:08:08;3.88;;;1.70;;
60312;SDS011;46158;52.850;6.970;2023-04-03T02:10:38;4.20;;;1.83;;
60312;SDS011;46158;52.850;6.970;2023-04-03T02:13:04;2.67;;;1.60;;
60312;SDS011;46158;52.850;6.970;2023-04-03T02:15:39;3.45;;;1.52;;
60312;SDS011;46158;52.850;6.970;2023-04-03T02:18:17;3.10;;;1.75;;
60312;SDS011;46158;52.850;6.970;2023-04-03T02:20:46;3.45;;;1.70;;
60312;SDS011;46158;52.850;6.970;2023-04-03T02:23:15;3.83;;;1.60;;
60312;SDS011;46158;52.850;6.970;2023-04-03T02:25:43;3.78;;;1.63;;
60312;SDS011;46158;52.850;6.970;2023-04-03T02:28:14;3.85;;;1.75;;
60312;SDS011;46158;52.850;6.970;2023-04-03T02:30:41;7.20;;;2.00;;
60312;SDS011;46158;52.850;6.970;2023-04-03T02:33:14;2.50;;;1.55;;
60312;SDS011;46158;52.850;6.970;2023-04-03T02:35:53;5.35;;;1.83;;
60312;SDS011;46158;52.850;6.970;2023-04-03T02:38:20;9.02;;;1.80;;
60312;SDS011;46158;52.850;6.970;2023-04-03T02:40:47;2.08;;;1.67;;
60312;SDS011;46158;52.850;6.970;2023-04-03T02:43:13;3.00;;;1.50;;
60312;SDS011;46158;52.850;6.970;2023-04-03T02:45:38;5.43;;;1.80;;
60312;SDS011;46158;52.850;6.970;2023-04-03T02:48:04;2.63;;;1.60;;
60312;SDS011;46158;52.850;6.970;2023-04-03T02:50:30;5.10;;;1.92;;
60312;SDS011;46158;52.850;6.970;2023-04-03T02:52:56;4.20;;;1.90;;
60312;SDS011;46158;52.850;6.970;2023-04-03T02:55:33;4.15;;;1.70;;
60312;SDS011;46158;52.850;6.970;2023-04-03T02:58:11;5.07;;;1.77;;
60312;SDS011;46158;52.850;6.970;2023-04-03T03:00:37;4.38;;;1.80;;
60312;SDS011;46158;52.850;6.970;2023-04-03T03:03:03;3.63;;;1.65;;
60312;SDS011;46158;52.850;6.970;2023-04-03T03:05:29;4.18;;;1.85;;
60312;SDS011;46158;52.850;6.970;2023-04-03T03:07:55;3.80;;;1.60;;
60312;SDS011;46158;52.850;6.970;2023-04-03T03:10:21;5.28;;;1.95;;
60312;SDS011;46158;52.850;6.970;2023-04-03T03:12:47;3.45;;;1.80;;
60312;SDS011;46158;52.850;6.970;2023-04-03T03:15:13;3.35;;;1.98;;
60312;SDS011;46158;52.850;6.970;2023-04-03T03:17:40;3.08;;;1.83;;
60312;SDS011;46158;52.850;6.970;2023-04-03T03:20:09;2.40;;;1.67;;
60312;SDS011;46158;52.850;6.970;2023-04-03T03:22:36;1.98;;;1.42;;
60312;SDS011;46158;52.850;6.970;2023-04-03T03:25:06;3.15;;;2.10;;
60312;SDS011;46158;52.850;6.970;2023-04-03T03:27:35;4.05;;;2.08;;
60312;SDS011;46158;52.850;6.970;2023-04-03T03:30:10;4.97;;;1.92;;
60312;SDS011;46158;52.850;6.970;2023-04-03T03:32:36;5.78;;;1.70;;
60312;SDS011;46158;52.850;6.970;2023-04-03T03:35:02;3.58;;;1.70;;
60312;SDS011;46158;52.850;6.970;2023-04-03T03:37:28;4.30;;;2.00;;
60312;SDS011;46158;52.850;6.970;2023-04-03T03:39:57;5.22;;;1.73;;
60312;SDS011;46158;52.850;6.970;2023-04-03T03:42:22;4.60;;;1.70;;
60312;SDS011;46158;52.850;6.970;2023-04-03T03:44:51;4.65;;;1.70;;
60312;SDS011;46158;52.850;6.970;2023-04-03T03:47:17;4.78;;;1.90;;
60312;SDS011;46158;52.850;6.970;2023-04-03T03:49:45;3.47;;;1.90;;
60312;SDS011;46158;52.850;6.970;2023-04-03T03:52:11;4.35;;;1.73;;
60312;SDS011;46158;52.850;6.970;2023-04-03T03:54:37;3.85;;;1.70;;
60312;SDS011;46158;52.850;6.970;2023-04-03T03:57:03;4.13;;;1.80;;
60312;SDS011;46158;52.850;6.970;2023-04-03T03:59:32;5.30;;;1.75;;
60312;SDS011;46158;52.850;6.970;2023-04-03T04:02:04;4.50;;;1.77;;
60312;SDS011;46158;52.850;6.970;2023-04-03T04:04:30;4.65;;;1.83;;
60312;SDS011;46158;52.850;6.970;2023-04-03T04:06:59;4.45;;;1.88;;
60312;SDS011;46158;52.850;6.970;2023-04-03T04:09:26;2.60;;;1.55;;
60312;SDS011;46158;52.850;6.970;2023-04-03T04:11:52;6.75;;;1.83;;
60312;SDS011;46158;52.850;6.970;2023-04-03T04:14:19;4.35;;;1.80;;
60312;SDS011;46158;52.850;6.970;2023-04-03T04:16:48;4.20;;;1.85;;
60312;SDS011;46158;52.850;6.970;2023-04-03T04:19:17;3.70;;;1.80;;
60312;SDS011;46158;52.850;6.970;2023-04-03T04:21:49;4.03;;;2.00;;
60312;SDS011;46158;52.850;6.970;2023-04-03T04:24:15;4.50;;;1.98;;
60312;SDS011;46158;52.850;6.970;2023-04-03T04:26:47;5.10;;;1.90;;
60312;SDS011;46158;52.850;6.970;2023-04-03T04:29:13;6.82;;;2.00;;
60312;SDS011;46158;52.850;6.970;2023-04-03T04:31:42;5.50;;;1.88;;
60312;SDS011;46158;52.850;6.970;2023-04-03T04:34:08;6.63;;;2.25;;
60312;SDS011;46158;52.850;6.970;2023-04-03T04:36:34;4.65;;;1.70;;
60312;SDS011;46158;52.850;6.970;2023-04-03T04:39:01;5.22;;;1.88;;
60312;SDS011;46158;52.850;6.970;2023-04-03T04:41:26;4.55;;;1.83;;
60312;SDS011;46158;52.850;6.970;2023-04-03T04:43:57;5.95;;;2.05;;
60312;SDS011;46158;52.850;6.970;2023-04-03T04:46:23;4.97;;;2.00;;
60312;SDS011;46158;52.850;6.970;2023-04-03T04:48:49;5.20;;;1.95;;
60312;SDS011;46158;52.850;6.970;2023-04-03T04:51:24;5.13;;;2.15;;
60312;SDS011;46158;52.850;6.970;2023-04-03T04:54:06;5.28;;;1.90;;
60312;SDS011;46158;52.850;6.970;2023-04-03T04:56:32;6.45;;;1.88;;
60312;SDS011;46158;52.850;6.970;2023-04-03T04:58:58;6.47;;;2.25;;
60312;SDS011;46158;52.850;6.970;2023-04-03T05:01:23;5.40;;;2.03;;
60312;SDS011;46158;52.850;6.970;2023-04-03T05:03:56;7.28;;;2.00;;
60312;SDS011;46158;52.850;6.970;2023-04-03T05:06:25;5.90;;;2.28;;
60312;SDS011;46158;52.850;6.970;2023-04-03T05:09:03;10.68;;;2.63;;
60312;SDS011;46158;52.850;6.970;2023-04-03T05:11:29;8.60;;;2.40;;
60312;SDS011;46158;52.850;6.970;2023-04-03T05:13:58;10.77;;;2.58;;
60312;SDS011;46158;52.850;6.970;2023-04-03T05:19:11;10.15;;;2.35;;
60312;SDS011;46158;52.850;6.970;2023-04-03T05:21:36;7.28;;;2.50;;
60312;SDS011;46158;52.850;6.970;2023-04-03T05:24:02;10.52;;;2.75;;
60312;SDS011;46158;52.850;6.970;2023-04-03T05:26:29;13.00;;;2.90;;
60312;SDS011;46158;52.850;6.970;2023-04-03T05:28:56;10.45;;;2.78;;
60312;SDS011;46158;52.850;6.970;2023-04-03T05:31:23;14.20;;;2.83;;
60312;SDS011;46158;52.850;6.970;2023-04-03T05:33:48;9.05;;;2.63;;
60312;SDS011;46158;52.850;6.970;2023-04-03T05:36:35;10.80;;;2.78;;
60312;SDS011;46158;52.850;6.970;2023-04-03T05:39:01;12.85;;;2.90;;
60312;SDS011;46158;52.850;6.970;2023-04-03T05:41:26;11.00;;;2.55;;
60312;SDS011;46158;52.850;6.970;2023-04-03T05:43:53;6.60;;;2.20;;
60312;SDS011;46158;52.850;6.970;2023-04-03T05:46:19;11.15;;;2.85;;
60312;SDS011;46158;52.850;6.970;2023-04-03T05:48:46;7.43;;;2.45;;
60312;SDS011;46158;52.850;6.970;2023-04-03T05:51:14;7.93;;;2.58;;
60312;SDS011;46158;52.850;6.970;2023-04-03T05:53:45;9.23;;;2.70;;
60312;SDS011;46158;52.850;6.970;2023-04-03T05:56:12;10.80;;;2.58;;
60312;SDS011;46158;52.850;6.970;2023-04-03T05:58:38;12.07;;;2.80;;
60312;SDS011;46158;52.850;6.970;2023-04-03T06:01:05;10.57;;;2.50;;
60312;SDS011;46158;52.850;6.970;2023-04-03T06:03:35;11.02;;;3.10;;
60312;SDS011;46158;52.850;6.970;2023-04-03T06:06:12;13.25;;;2.67;;
60312;SDS011;46158;52.850;6.970;2023-04-03T06:08:58;10.18;;;3.00;;
60312;SDS011;46158;52.850;6.970;2023-04-03T06:11:24;12.30;;;3.20;;
60312;SDS011;46158;52.850;6.970;2023-04-03T06:14:01;7.63;;;2.50;;
60312;SDS011;46158;52.850;6.970;2023-04-03T06:16:28;11.25;;;3.20;;
60312;SDS011;46158;52.850;6.970;2023-04-03T06:18:54;8.65;;;2.53;;
60312;SDS011;46158;52.850;6.970;2023-04-03T06:21:30;9.07;;;2.38;;
60312;SDS011;46158;52.850;6.970;2023-04-03T06:23:55;10.80;;;2.30;;
60312;SDS011;46158;52.850;6.970;2023-04-03T06:26:21;8.25;;;2.50;;
60312;SDS011;46158;52.850;6.970;2023-04-03T06:28:47;9.82;;;2.60;;
60312;SDS011;46158;52.850;6.970;2023-04-03T06:31:13;9.10;;;2.45;;
60312;SDS011;46158;52.850;6.970;2023-04-03T06:33:39;10.55;;;2.60;;
60312;SDS011;46158;52.850;6.970;2023-04-03T06:36:05;9.02;;;2.33;;
60312;SDS011;46158;52.850;6.970;2023-04-03T06:38:32;8.85;;;2.78;;
60312;SDS011;46158;52.850;6.970;2023-04-03T06:40:58;9.02;;;2.28;;
60312;SDS011;46158;52.850;6.970;2023-04-03T06:43:25;8.00;;;2.53;;
60312;SDS011;46158;52.850;6.970;2023-04-03T06:45:51;10.05;;;2.40;;
60312;SDS011;46158;52.850;6.970;2023-04-03T06:48:17;9.48;;;2.55;;
60312;SDS011;46158;52.850;6.970;2023-04-03T06:50:46;10.90;;;2.30;;
60312;SDS011;46158;52.850;6.970;2023-04-03T06:53:12;9.07;;;2.40;;
60312;SDS011;46158;52.850;6.970;2023-04-03T06:55:38;9.57;;;2.30;;
60312;SDS011;46158;52.850;6.970;2023-04-03T06:58:04;6.55;;;2.33;;
60312;SDS011;46158;52.850;6.970;2023-04-03T07:00:30;4.45;;;2.25;;
60312;SDS011;46158;52.850;6.970;2023-04-03T07:02:56;8.77;;;2.30;;
60312;SDS011;46158;52.850;6.970;2023-04-03T07:05:22;7.07;;;2.55;;
60312;SDS011;46158;52.850;6.970;2023-04-03T07:07:49;8.05;;;2.00;;
60312;SDS011;46158;52.850;6.970;2023-04-03T07:10:16;5.88;;;2.30;;
60312;SDS011;46158;52.850;6.970;2023-04-03T07:12:42;8.10;;;2.30;;
60312;SDS011;46158;52.850;6.970;2023-04-03T07:15:08;8.32;;;2.60;;
60312;SDS011;46158;52.850;6.970;2023-04-03T07:17:34;10.27;;;2.50;;
60312;SDS011;46158;52.850;6.970;2023-04-03T07:20:02;5.90;;;2.00;;
60312;SDS011;46158;52.850;6.970;2023-04-03T07:22:29;7.18;;;2.10;;
60312;SDS011;46158;52.850;6.970;2023-04-03T07:24:55;6.15;;;2.00;;
60312;SDS011;46158;52.850;6.970;2023-04-03T07:27:21;8.32;;;2.20;;
60312;SDS011;46158;52.850;6.970;2023-04-03T07:29:47;4.75;;;2.05;;
60312;SDS011;46158;52.850;6.970;2023-04-03T07:32:14;5.82;;;2.00;;
60312;SDS011;46158;52.850;6.970;2023-04-03T07:34:40;9.68;;;2.17;;
60312;SDS011;46158;52.850;6.970;2023-04-03T07:37:06;6.10;;;2.25;;
60312;SDS011;46158;52.850;6.970;2023-04-03T07:39:34;5.75;;;1.95;;
60312;SDS011;46158;52.850;6.970;2023-04-03T07:42:00;6.70;;;2.20;;
60312;SDS011;46158;52.850;6.970;2023-04-03T07:44:26;5.07;;;1.80;;
60312;SDS011;46158;52.850;6.970;2023-04-03T07:46:53;8.13;;;2.17;;
60312;SDS011;46158;52.850;6.970;2023-04-03T07:49:20;5.63;;;2.00;;
60312;SDS011;46158;52.850;6.970;2023-04-03T07:51:48;8.25;;;2.05;;
60312;SDS011;46158;52.850;6.970;2023-04-03T07:54:16;6.38;;;2.00;;
60312;SDS011;46158;52.850;6.970;2023-04-03T07:56:51;6.78;;;1.95;;
60312;SDS011;46158;52.850;6.970;2023-04-03T08:02:04;5.35;;;1.85;;
60312;SDS011;46158;52.850;6.970;2023-04-03T08:04:30;7.35;;;2.10;;
60312;SDS011;46158;52.850;6.970;2023-04-03T08:06:56;4.05;;;1.80;;
60312;SDS011;46158;52.850;6.970;2023-04-03T08:09:21;3.22;;;1.85;;
60312;SDS011;46158;52.850;6.970;2023-04-03T08:11:47;5.90;;;2.08;;
60312;SDS011;46158;52.850;6.970;2023-04-03T08:14:13;6.15;;;1.92;;
60312;SDS011;46158;52.850;6.970;2023-04-03T08:16:44;7.05;;;2.15;;
60312;SDS011;46158;52.850;6.970;2023-04-03T08:19:10;5.75;;;1.90;;
60312;SDS011;46158;52.850;6.970;2023-04-03T08:21:47;6.88;;;2.30;;
60312;SDS011;46158;52.850;6.970;2023-04-03T08:24:13;6.18;;;2.03;;
60312;SDS011;46158;52.850;6.970;2023-04-03T08:26:39;4.97;;;2.08;;
60312;SDS011;46158;52.850;6.970;2023-04-03T08:29:07;5.95;;;2.08;;
60312;SDS011;46158;52.850;6.970;2023-04-03T08:31:33;4.15;;;1.83;;
60312;SDS011;46158;52.850;6.970;2023-04-03T08:33:59;4.05;;;1.90;;
60312;SDS011;46158;52.850;6.970;2023-04-03T08:36:26;8.48;;;2.10;;
60312;SDS011;46158;52.850;6.970;2023-04-03T08:38:53;5.80;;;2.03;;
60312;SDS011;46158;52.850;6.970;2023-04-03T08:41:40;5.93;;;2.10;;
60312;SDS011;46158;52.850;6.970;2023-04-03T08:47:35;4.25;;;1.90;;
60312;SDS011;46158;52.850;6.970;2023-04-03T08:50:11;4.82;;;1.80;;
60312;SDS011;46158;52.850;6.970;2023-04-03T08:55:27;6.00;;;1.90;;
60312;SDS011;46158;52.850;6.970;2023-04-03T09:00:55;5.57;;;1.67;;
60312;SDS011;46158;52.850;6.970;2023-04-03T09:03:20;9.65;;;2.22;;
60312;SDS011;46158;52.850;6.970;2023-04-03T09:05:53;3.17;;;1.80;;
60312;SDS011;46158;52.850;6.970;2023-04-03T09:08:37;6.93;;;1.90;;
60312;SDS011;46158;52.850;6.970;2023-04-03T09:13:44;5.68;;;1.70;;
60312;SDS011;46158;52.850;6.970;2023-04-03T09:16:32;5.68;;;2.00;;
60312;SDS011;46158;52.850;6.970;2023-04-03T09:19:15;2.75;;;1.70;;
60312;SDS011;46158;52.850;6.970;2023-04-03T09:22:23;6.30;;;2.00;;
60312;SDS011;46158;52.850;6.970;2023-04-03T09:24:58;3.97;;;1.70;;
60312;SDS011;46158;52.850;6.970;2023-04-03T09:27:40;6.93;;;1.98;;
60312;SDS011;46158;52.850;6.970;2023-04-03T09:30:52;6.00;;;1.70;;
60312;SDS011;46158;52.850;6.970;2023-04-03T09:32:59;7.28;;;1.83;;
60312;SDS011;46158;52.850;6.970;2023-04-03T09:35:26;4.70;;;1.85;;
60312;SDS011;46158;52.850;6.970;2023-04-03T09:38:00;4.28;;;1.70;;
60312;SDS011;46158;52.850;6.970;2023-04-03T09:40:40;6.03;;;1.63;;
60312;SDS011;46158;52.850;6.970;2023-04-03T09:45:46;7.97;;;1.90;;
60312;SDS011;46158;52.850;6.970;2023-04-03T09:53:41;7.35;;;1.88;;
60312;SDS011;46158;52.850;6.970;2023-04-03T09:58:45;3.95;;;1.80;;
60312;SDS011;46158;52.850;6.970;2023-04-03T10:01:29;5.00;;;1.85;;
60312;SDS011;46158;52.850;6.970;2023-04-03T10:04:09;4.65;;;1.90;;
60312;SDS011;46158;52.850;6.970;2023-04-03T10:06:48;2.85;;;1.70;;
60312;SDS011;46158;52.850;6.970;2023-04-03T10:09:29;4.18;;;1.60;;
60312;SDS011;46158;52.850;6.970;2023-04-03T10:12:06;5.38;;;1.88;;
60312;SDS011;46158;52.850;6.970;2023-04-03T10:15:17;5.70;;;1.55;;
60312;SDS011;46158;52.850;6.970;2023-04-03T10:30:47;4.30;;;1.65;;
60312;SDS011;46158;52.850;6.970;2023-04-03T10:47:06;3.25;;;1.40;;
60312;SDS011;46158;52.850;6.970;2023-04-03T10:49:45;5.40;;;1.50;;
60312;SDS011;46158;52.850;6.970;2023-04-03T10:52:40;6.10;;;1.60;;
60312;SDS011;46158;52.850;6.970;2023-04-03T10:57:50;3.45;;;1.60;;
60312;SDS011;46158;52.850;6.970;2023-04-03T11:00:19;7.15;;;1.73;;
60312;SDS011;46158;52.850;6.970;2023-04-03T11:03:11;2.78;;;1.42;;
60312;SDS011;46158;52.850;6.970;2023-04-03T11:08:24;5.10;;;1.75;;
60312;SDS011;46158;52.850;6.970;2023-04-03T11:10:59;8.95;;;1.85;;
60312;SDS011;46158;52.850;6.970;2023-04-03T11:16:23;3.17;;;1.50;;
60312;SDS011;46158;52.850;6.970;2023-04-03T11:21:39;4.45;;;1.52;;
60312;SDS011;46158;52.850;6.970;2023-04-03T11:24:27;6.10;;;1.80;;
60312;SDS011;46158;52.850;6.970;2023-04-03T11:27:00;2.17;;;1.40;;
60312;SDS011;46158;52.850;6.970;2023-04-03T11:29:35;5.30;;;1.52;;
60312;SDS011;46158;52.850;6.970;2023-04-03T11:34:40;6.43;;;1.60;;
60312;SDS011;46158;52.850;6.970;2023-04-03T11:40:21;5.15;;;1.63;;
60312;SDS011;46158;52.850;6.970;2023-04-03T11:45:29;4.80;;;1.60;;
60312;SDS011;46158;52.850;6.970;2023-04-03T11:48:01;5.68;;;1.60;;
60312;SDS011;46158;52.850;6.970;2023-04-03T11:50:59;3.88;;;1.40;;
60312;SDS011;46158;52.850;6.970;2023-04-03T11:53:29;2.33;;;1.48;;
60312;SDS011;46158;52.850;6.970;2023-04-03T12:01:50;2.95;;;1.60;;
60312;SDS011;46158;52.850;6.970;2023-04-03T12:04:17;2.75;;;1.30;;
60312;SDS011;46158;52.850;6.970;2023-04-03T12:15:18;7.93;;;2.22;;
60312;SDS011;46158;52.850;6.970;2023-04-03T12:17:50;5.25;;;1.63;;
60312;SDS011;46158;52.850;6.970;2023-04-03T12:23:25;4.80;;;1.60;;
60312;SDS011;46158;52.850;6.970;2023-04-03T12:25:59;2.17;;;1.25;;
60312;SDS011;46158;52.850;6.970;2023-04-03T12:28:34;4.88;;;1.67;;
60312;SDS011;46158;52.850;6.970;2023-04-03T12:31:03;8.48;;;1.92;;
60312;SDS011;46158;52.850;6.970;2023-04-03T12:36:23;29.48;;;8.95;;
60312;SDS011;46158;52.850;6.970;2023-04-03T12:44:40;48.90;;;15.50;;
60312;SDS011;46158;52.850;6.970;2023-04-03T12:47:25;49.33;;;16.63;;
60312;SDS011;46158;52.850;6.970;2023-04-03T12:49:58;48.05;;;16.73;;
60312;SDS011;46158;52.850;6.970;2023-04-03T12:52:32;47.08;;;16.55;;
60312;SDS011;46158;52.850;6.970;2023-04-03T12:55:03;47.13;;;15.52;;
60312;SDS011;46158;52.850;6.970;2023-04-03T12:57:38;42.45;;;15.02;;
60312;SDS011;46158;52.850;6.970;2023-04-03T13:00:20;36.55;;;12.18;;
60312;SDS011;46158;52.850;6.970;2023-04-03T13:02:52;35.10;;;10.30;;
60312;SDS011;46158;52.850;6.970;2023-04-03T13:05:19;34.17;;;10.82;;
60312;SDS011;46158;52.850;6.970;2023-04-03T13:07:54;31.70;;;10.32;;
60312;SDS011;46158;52.850;6.970;2023-04-03T13:10:28;31.27;;;10.10;;
60312;SDS011;46158;52.850;6.970;2023-04-03T13:13:09;29.50;;;9.55;;
60312;SDS011;46158;52.850;6.970;2023-04-03T13:15:45;35.15;;;9.52;;
60312;SDS011;46158;52.850;6.970;2023-04-03T13:18:24;35.90;;;11.80;;
60312;SDS011;46158;52.850;6.970;2023-04-03T13:21:05;33.90;;;10.75;;
60312;SDS011;46158;52.850;6.970;2023-04-03T13:23:45;37.38;;;11.63;;
60312;SDS011;46158;52.850;6.970;2023-04-03T13:26:14;35.95;;;10.70;;
60312;SDS011;46158;52.850;6.970;2023-04-03T13:28:42;30.30;;;10.05;;
60312;SDS011;46158;52.850;6.970;2023-04-03T13:36:39;29.33;;;8.73;;
60312;SDS011;46158;52.850;6.970;2023-04-03T13:41:39;27.67;;;7.00;;
60312;SDS011;46158;52.850;6.970;2023-04-03T13:44:17;24.63;;;6.03;;
60312;SDS011;46158;52.850;6.970;2023-04-03T13:46:43;25.50;;;6.15;;
60312;SDS011;46158;52.850;6.970;2023-04-03T13:53:08;24.92;;;6.57;;
60312;SDS011;46158;52.850;6.970;2023-04-03T13:55:26;25.58;;;6.18;;
60312;SDS011;46158;52.850;6.970;2023-04-03T14:03:54;21.42;;;5.50;;
60312;SDS011;46158;52.850;6.970;2023-04-03T14:06:26;20.00;;;4.63;;
60312;SDS011;46158;52.850;6.970;2023-04-03T14:08:52;22.00;;;5.43;;
60312;SDS011;46158;52.850;6.970;2023-04-03T14:11:21;21.00;;;5.05;;
60312;SDS011;46158;52.850;6.970;2023-04-03T14:13:49;22.85;;;5.32;;
60312;SDS011;46158;52.850;6.970;2023-04-03T14:16:20;20.63;;;4.78;;
60312;SDS011;46158;52.850;6.970;2023-04-03T14:18:53;21.17;;;4.80;;
60312;SDS011;46158;52.850;6.970;2023-04-03T14:21:22;24.17;;;5.10;;
60312;SDS011;46158;52.850;6.970;2023-04-03T14:23:48;20.92;;;4.75;;
60312;SDS011;46158;52.850;6.970;2023-04-03T14:26:16;18.95;;;4.93;;
60312;SDS011;46158;52.850;6.970;2023-04-03T14:28:46;21.42;;;4.55;;
60312;SDS011;46158;52.850;6.970;2023-04-03T14:31:13;17.15;;;3.90;;
60312;SDS011;46158;52.850;6.970;2023-04-03T14:33:41;18.60;;;4.40;;
60312;SDS011;46158;52.850;6.970;2023-04-03T14:36:18;18.98;;;4.30;;
60312;SDS011;46158;52.850;6.970;2023-04-03T14:38:47;16.67;;;4.13;;
60312;SDS011;46158;52.850;6.970;2023-04-03T14:41:16;15.90;;;4.45;;
60312;SDS011;46158;52.850;6.970;2023-04-03T14:43:44;16.50;;;3.70;;
60312;SDS011;46158;52.850;6.970;2023-04-03T14:46:31;16.70;;;3.70;;
60312;SDS011;46158;52.850;6.970;2023-04-03T14:49:03;17.42;;;3.60;;
60312;SDS011;46158;52.850;6.970;2023-04-03T14:51:37;13.20;;;3.58;;
60312;SDS011;46158;52.850;6.970;2023-04-03T14:54:03;14.27;;;3.45;;
60312;SDS011;46158;52.850;6.970;2023-04-03T14:56:35;14.50;;;3.45;;
60312;SDS011;46158;52.850;6.970;2023-04-03T14:59:04;12.77;;;3.70;;
60312;SDS011;46158;52.850;6.970;2023-04-03T15:01:35;15.50;;;3.22;;
60312;SDS011;46158;52.850;6.970;2023-04-03T15:04:01;15.80;;;3.45;;
60312;SDS011;46158;52.850;6.970;2023-04-03T15:06:30;15.70;;;3.60;;
60312;SDS011;46158;52.850;6.970;2023-04-03T15:08:59;16.08;;;3.53;;
60312;SDS011;46158;52.850;6.970;2023-04-03T15:11:32;13.55;;;3.45;;
60312;SDS011;46158;52.850;6.970;2023-04-03T15:13:58;12.37;;;2.97;;
60312;SDS011;46158;52.850;6.970;2023-04-03T15:16:24;11.73;;;2.90;;
60312;SDS011;46158;52.850;6.970;2023-04-03T15:18:55;13.48;;;3.00;;
60312;SDS011;46158;52.850;6.970;2023-04-03T15:21:21;13.60;;;3.00;;
60312;SDS011;46158;52.850;6.970;2023-04-03T15:23:46;9.50;;;2.55;;
60312;SDS011;46158;52.850;6.970;2023-04-03T15:26:15;12.65;;;3.00;;
60312;SDS011;46158;52.850;6.970;2023-04-03T15:28:51;12.02;;;3.00;;
60312;SDS011;46158;52.850;6.970;2023-04-03T15:31:21;8.25;;;2.38;;
60312;SDS011;46158;52.850;6.970;2023-04-03T15:33:47;11.35;;;2.63;;
60312;SDS011;46158;52.850;6.970;2023-04-03T15:36:13;11.50;;;2.72;;
60312;SDS011;46158;52.850;6.970;2023-04-03T15:38:42;11.75;;;2.80;;
60312;SDS011;46158;52.850;6.970;2023-04-03T15:41:18;8.32;;;2.50;;
60312;SDS011;46158;52.850;6.970;2023-04-03T15:43:44;7.38;;;2.50;;
60312;SDS011;46158;52.850;6.970;2023-04-03T15:46:10;9.52;;;2.53;;
60312;SDS011;46158;52.850;6.970;2023-04-03T15:48:40;10.27;;;2.65;;
60312;SDS011;46158;52.850;6.970;2023-04-03T15:51:06;11.35;;;2.88;;
60312;SDS011;46158;52.850;6.970;2023-04-03T15:53:32;8.68;;;2.60;;
60312;SDS011;46158;52.850;6.970;2023-04-03T15:55:59;9.23;;;2.40;;
60312;SDS011;46158;52.850;6.970;2023-04-03T15:58:25;11.65;;;2.67;;
60312;SDS011;46158;52.850;6.970;2023-04-03T16:00:59;8.55;;;2.40;;
60312;SDS011;46158;52.850;6.970;2023-04-03T16:03:29;11.15;;;2.78;;
60312;SDS011;46158;52.850;6.970;2023-04-03T16:05:58;11.73;;;2.50;;
60312;SDS011;46158;52.850;6.970;2023-04-03T16:08:30;9.88;;;2.55;;
60312;SDS011;46158;52.850;6.970;2023-04-03T16:10:56;8.45;;;2.53;;
60312;SDS011;46158;52.850;6.970;2023-04-03T16:13:22;8.82;;;2.30;;
60312;SDS011;46158;52.850;6.970;2023-04-03T16:15:54;10.13;;;2.40;;
60312;SDS011;46158;52.850;6.970;2023-04-03T16:18:23;12.02;;;2.75;;
60312;SDS011;46158;52.850;6.970;2023-04-03T16:20:55;10.98;;;2.40;;
60312;SDS011;46158;52.850;6.970;2023-04-03T16:23:25;17.00;;;2.60;;
60312;SDS011;46158;52.850;6.970;2023-04-03T16:25:51;8.50;;;2.55;;
60312;SDS011;46158;52.850;6.970;2023-04-03T16:28:17;11.25;;;2.85;;
60312;SDS011;46158;52.850;6.970;2023-04-03T16:30:59;8.70;;;2.28;;
60312;SDS011;46158;52.850;6.970;2023-04-03T16:33:37;6.97;;;2.00;;
60312;SDS011;46158;52.850;6.970;2023-04-03T16:36:04;7.90;;;2.28;;
60312;SDS011;46158;52.850;6.970;2023-04-03T16:38:31;5.22;;;2.00;;
60312;SDS011;46158;52.850;6.970;2023-04-03T16:40:58;10.77;;;2.38;;
60312;SDS011;46158;52.850;6.970;2023-04-03T16:44:05;14.82;;;2.42;;
60312;SDS011;46158;52.850;6.970;2023-04-03T16:46:40;11.77;;;2.58;;
60312;SDS011;46158;52.850;6.970;2023-04-03T16:51:58;12.93;;;2.22;;
60312;SDS011;46158;52.850;6.970;2023-04-03T16:54:30;8.90;;;2.30;;
60312;SDS011;46158;52.850;6.970;2023-04-03T16:56:59;10.32;;;2.28;;
60312;SDS011;46158;52.850;6.970;2023-04-03T16:59:33;8.95;;;2.00;;
60312;SDS011;46158;52.850;6.970;2023-04-03T17:01:59;9.65;;;2.00;;
60312;SDS011;46158;52.850;6.970;2023-04-03T17:04:29;6.82;;;2.00;;
60312;SDS011;46158;52.850;6.970;2023-04-03T17:07:04;5.70;;;1.83;;
60312;SDS011;46158;52.850;6.970;2023-04-03T17:12:28;9.02;;;2.00;;